Ext Villa Interamericana, Puerto Rico
Current Conditions -  °F | °C
As of 3:50 PM on Monday 22 Dec 2014 (Local Time) from TJBQ Reporting Station
Broken Clouds Broken Clouds  
Wind Chill: 81°   Ceiling: 2600
Heat Index: 85°   Visibility: 10mi
Dew Point: 72°   Wind: 13mph
Humidity: 74%   Direction: 80°E
Pressure: 29.98"   Gusts: NA
Location:  18.0846°N, 67.0463°W
Report Text: TJBQ 221950Z 08011KT 10SM SCT020 BKN026 BKN045 27/22 A2998 RMK RWY08 ATIS Z
Loading
Personal Weather Stations






























Interactive Weather Map New forecast layout! Learn more

10-Day Weather Forecast

Advertisements
Track Severe Weather on mobile